createdAt,value
2019-04-30T00:01:07.532Z,38.73
2019-04-30T00:03:57.817Z,33.30
2019-04-30T00:06:21.995Z,29.00
2019-04-30T00:08:50.985Z,32.93
2019-04-30T00:11:19.952Z,33.07
2019-04-30T00:13:50.164Z,33.23
2019-04-30T00:16:19.339Z,32.97
2019-04-30T00:18:58.181Z,35.47
2019-04-30T00:21:18.968Z,30.73
2019-04-30T00:23:48.040Z,29.03
2019-04-30T00:26:17.275Z,38.10
2019-04-30T00:28:47.705Z,34.87
2019-04-30T00:31:23.479Z,32.37
2019-04-30T00:33:47.739Z,30.17
2019-04-30T00:36:17.345Z,34.27
2019-04-30T00:38:46.379Z,32.47
2019-04-30T00:41:15.599Z,32.30
2019-04-30T00:43:47.994Z,31.63
2019-04-30T00:46:17.420Z,29.30
2019-04-30T00:48:46.123Z,37.80
2019-04-30T00:51:21.181Z,43.83
2019-04-30T00:53:51.365Z,36.90
2019-04-30T00:56:19.981Z,30.00
2019-04-30T00:58:47.106Z,39.90
2019-04-30T01:01:30.612Z,36.83
2019-04-30T01:04:06.727Z,34.20
2019-04-30T01:06:35.796Z,33.43
2019-04-30T01:09:08.530Z,34.90
2019-04-30T01:11:39.729Z,30.33
2019-04-30T01:14:06.822Z,35.83
2019-04-30T01:16:35.862Z,40.13
2019-04-30T01:19:05.826Z,49.17
2019-04-30T01:21:35.664Z,40.97
2019-04-30T01:24:04.828Z,46.23
2019-04-30T01:26:34.146Z,51.67
2019-04-30T01:29:03.591Z,45.97
2019-04-30T01:31:37.323Z,35.77
2019-04-30T01:34:05.248Z,43.37
2019-04-30T01:36:34.207Z,36.47
2019-04-30T01:39:03.269Z,32.10
2019-04-30T01:41:32.275Z,42.50
2019-04-30T01:44:03.760Z,39.37
2019-04-30T01:46:32.000Z,38.33
2019-04-30T01:49:00.997Z,38.73
2019-04-30T01:51:30.069Z,32.37
2019-04-30T01:53:59.484Z,38.17
2019-04-30T01:56:49.875Z,36.77
2019-04-30T01:59:22.635Z,36.67
2019-04-30T02:01:51.717Z,34.87
2019-04-30T02:04:20.644Z,47.17
2019-04-30T02:06:49.557Z,39.30
2019-04-30T02:09:18.904Z,36.23
2019-04-30T02:11:49.531Z,34.30
2019-04-30T02:14:18.967Z,40.53
2019-04-30T02:16:49.439Z,34.80
2019-04-30T02:19:18.923Z,35.87
2019-04-30T02:21:48.664Z,41.33
2019-04-30T02:24:19.202Z,40.97
2019-04-30T02:26:48.601Z,37.23
2019-04-30T02:29:19.113Z,37.87
2019-04-30T02:31:50.424Z,30.17
2019-04-30T02:34:30.255Z,36.80
2019-04-30T02:37:12.935Z,35.60
2019-04-30T02:39:41.982Z,31.60
2019-04-30T02:42:13.188Z,37.67
2019-04-30T02:44:43.512Z,33.00
2019-04-30T02:47:14.112Z,30.37
2019-04-30T02:49:44.189Z,40.30
2019-04-30T02:52:15.209Z,30.10
2019-04-30T02:54:50.022Z,30.70
2019-04-30T02:57:22.998Z,33.40
2019-04-30T03:00:05.874Z,27.53
2019-04-30T03:02:34.957Z,33.67
2019-04-30T03:05:05.113Z,42.03
2019-04-30T03:07:34.136Z,26.97
2019-04-30T03:10:03.175Z,38.10
2019-04-30T03:12:33.777Z,32.93
2019-04-30T03:15:02.752Z,31.60
2019-04-30T03:17:42.646Z,27.83
2019-04-30T03:20:35.635Z,29.43
2019-04-30T03:23:02.445Z,32.70
2019-04-30T03:25:31.724Z,29.30
2019-04-30T03:28:00.693Z,34.40
2019-04-30T03:30:31.820Z,38.10
2019-04-30T03:33:02.741Z,36.53
2019-04-30T03:35:32.593Z,30.73
2019-04-30T03:38:01.961Z,34.47
2019-04-30T03:40:31.006Z,38.80
2019-04-30T03:43:03.068Z,34.33
2019-04-30T03:45:30.528Z,35.53
2019-04-30T03:48:00.475Z,38.97
2019-04-30T03:50:36.562Z,37.67
2019-04-30T03:53:03.123Z,46.73
2019-04-30T03:55:32.165Z,41.57
2019-04-30T03:58:01.203Z,42.43
2019-04-30T04:00:52.402Z,39.37
2019-04-30T04:03:21.336Z,38.27
2019-04-30T04:05:55.348Z,49.90
2019-04-30T04:08:32.632Z,40.77
2019-04-30T04:11:10.166Z,36.97
2019-04-30T04:13:40.027Z,32.87
2019-04-30T04:16:09.768Z,37.13
2019-04-30T04:18:40.140Z,47.73
2019-04-30T04:21:16.309Z,36.87
2019-04-30T04:23:40.133Z,40.63
2019-04-30T04:26:09.561Z,42.50
2019-04-30T04:28:43.087Z,38.37
2019-04-30T04:31:09.643Z,38.97
2019-04-30T04:33:39.517Z,36.90
2019-04-30T04:36:09.160Z,41.30
2019-04-30T04:38:40.335Z,46.33
2019-04-30T04:41:10.312Z,45.00
2019-04-30T04:43:40.177Z,40.50
2019-04-30T04:46:09.492Z,45.37
2019-04-30T04:48:39.418Z,45.77
2019-04-30T04:51:19.734Z,49.23
2019-04-30T04:53:40.173Z,41.63
2019-04-30T04:56:10.089Z,38.33
2019-04-30T04:58:40.141Z,36.13
2019-04-30T05:01:11.839Z,36.97
2019-04-30T05:03:40.525Z,35.40
2019-04-30T05:06:11.736Z,32.83
2019-04-30T05:08:40.325Z,32.40
2019-04-30T05:11:09.612Z,37.87
2019-04-30T05:13:39.006Z,31.43
2019-04-30T05:16:09.224Z,30.83
2019-04-30T05:18:39.118Z,45.03
2019-04-30T05:21:08.853Z,39.37
2019-04-30T05:23:40.249Z,37.03
2019-04-30T05:26:10.925Z,32.23
2019-04-30T05:28:39.468Z,40.07
2019-04-30T05:31:08.820Z,50.50
2019-04-30T05:33:39.070Z,43.93
2019-04-30T05:36:09.332Z,37.83
2019-04-30T05:38:39.227Z,30.57
2019-04-30T05:41:12.252Z,36.07
2019-04-30T05:43:42.666Z,34.57
2019-04-30T05:46:14.120Z,40.60
2019-04-30T05:48:43.814Z,49.03
2019-04-30T05:51:12.744Z,49.73
2019-04-30T05:53:41.779Z,44.53
2019-04-30T05:56:11.671Z,41.57
2019-04-30T05:58:41.854Z,38.67
2019-04-30T06:01:10.807Z,38.57
2019-04-30T06:03:40.354Z,41.17
2019-04-30T06:06:11.476Z,39.17
2019-04-30T06:08:48.964Z,39.17
2019-04-30T06:11:29.245Z,42.27
2019-04-30T06:14:19.802Z,39.10
2019-04-30T06:17:06.245Z,40.73
2019-04-30T06:19:39.057Z,45.47
2019-04-30T06:22:10.775Z,51.37
2019-04-30T06:24:40.152Z,39.50
2019-04-30T06:27:11.012Z,56.10
2019-04-30T06:29:41.396Z,41.77
2019-04-30T06:32:12.425Z,41.40
2019-04-30T06:34:43.065Z,33.27
2019-04-30T06:37:12.901Z,39.60
2019-04-30T06:39:43.184Z,32.67
2019-04-30T06:42:13.454Z,29.30
2019-04-30T06:44:43.588Z,33.53
2019-04-30T06:47:13.733Z,34.40
2019-04-30T06:49:43.368Z,37.80
2019-04-30T06:52:20.498Z,38.73
2019-04-30T06:54:44.890Z,36.43
2019-04-30T06:57:15.055Z,31.67
2019-04-30T06:59:44.699Z,36.53
2019-04-30T07:02:13.707Z,33.67
2019-04-30T07:04:42.653Z,34.17
2019-04-30T07:07:14.377Z,34.60
2019-04-30T07:09:56.916Z,27.10
2019-04-30T07:12:39.026Z,32.37
2019-04-30T07:15:08.771Z,29.90
2019-04-30T07:17:40.575Z,29.20
2019-04-30T07:20:10.559Z,39.63
2019-04-30T07:22:45.422Z,34.13
2019-04-30T07:25:10.239Z,32.30
2019-04-30T07:27:40.125Z,32.77
2019-04-30T07:30:10.211Z,33.83
2019-04-30T07:32:39.068Z,37.43
2019-04-30T07:35:09.462Z,30.57
2019-04-30T07:37:39.278Z,30.63
2019-04-30T07:40:09.267Z,31.67
2019-04-30T07:42:44.621Z,37.33
2019-04-30T07:45:09.754Z,35.13
2019-04-30T07:47:39.608Z,31.30
2019-04-30T07:50:10.736Z,30.23
2019-04-30T07:52:58.169Z,35.17
2019-04-30T07:55:11.284Z,27.20
2019-04-30T07:57:40.574Z,28.03
2019-04-30T08:00:10.203Z,29.57
2019-04-30T08:02:44.364Z,36.80
2019-04-30T08:05:25.689Z,30.13
2019-04-30T08:07:54.752Z,35.83
2019-04-30T08:10:23.786Z,32.97
2019-04-30T08:12:52.934Z,32.00
2019-04-30T08:15:22.680Z,33.50
2019-04-30T08:18:02.892Z,36.10
2019-04-30T08:20:22.281Z,38.13
2019-04-30T08:22:51.259Z,41.70
2019-04-30T08:25:22.043Z,38.37
2019-04-30T08:27:50.973Z,41.87
2019-04-30T08:30:26.761Z,36.83
2019-04-30T08:32:53.632Z,36.60
2019-04-30T08:35:22.638Z,40.73
2019-04-30T08:37:51.643Z,38.00
2019-04-30T08:40:20.707Z,29.83
2019-04-30T08:42:49.777Z,32.07
2019-04-30T08:45:19.680Z,23.37
2019-04-30T08:47:49.439Z,26.57
2019-04-30T08:50:19.917Z,40.70
2019-04-30T08:52:50.036Z,34.70
2019-04-30T08:55:22.222Z,32.47
2019-04-30T08:57:50.220Z,26.60
2019-04-30T09:00:19.774Z,29.53
2019-04-30T09:02:49.323Z,21.40
2019-04-30T09:05:36.320Z,26.30
2019-04-30T09:08:06.259Z,27.43
2019-04-30T09:10:35.232Z,27.63
2019-04-30T09:13:04.255Z,24.30
2019-04-30T09:15:33.328Z,23.27
2019-04-30T09:18:05.993Z,21.07
2019-04-30T09:20:32.991Z,24.83
2019-04-30T09:23:01.935Z,24.90
2019-04-30T09:25:30.816Z,21.87
2019-04-30T09:27:59.787Z,20.43
2019-04-30T09:30:29.919Z,17.53
2019-04-30T09:32:59.472Z,19.60
2019-04-30T09:35:32.181Z,22.20
2019-04-30T09:38:02.068Z,20.13
2019-04-30T09:40:32.580Z,15.20
2019-04-30T09:43:01.681Z,19.30
2019-04-30T09:45:30.663Z,21.17
2019-04-30T09:47:59.554Z,19.63
2019-04-30T09:50:29.237Z,19.70
2019-04-30T09:53:00.259Z,22.20
2019-04-30T09:55:29.227Z,26.03
2019-04-30T09:57:58.870Z,26.07
2019-04-30T10:00:29.546Z,20.10
2019-04-30T10:02:59.897Z,22.73
2019-04-30T10:05:29.431Z,20.37
2019-04-30T10:07:59.374Z,20.07
2019-04-30T10:10:33.969Z,20.77
2019-04-30T10:13:02.852Z,19.03
2019-04-30T10:15:51.620Z,20.07
2019-04-30T10:18:20.579Z,22.40
2019-04-30T10:20:49.619Z,18.77
2019-04-30T10:23:19.416Z,20.90
2019-04-30T10:25:49.006Z,15.53
2019-04-30T10:28:19.651Z,18.57
2019-04-30T10:30:48.675Z,19.83
2019-04-30T10:33:19.526Z,18.80
2019-04-30T10:35:49.699Z,19.60
2019-04-30T10:38:19.474Z,18.43
2019-04-30T10:40:48.887Z,17.27
2019-04-30T10:43:19.684Z,20.07
2019-04-30T10:45:48.647Z,16.00
2019-04-30T10:48:17.652Z,15.47
2019-04-30T10:50:46.563Z,17.77
2019-04-30T10:53:16.086Z,15.00
2019-04-30T10:55:44.967Z,20.60
2019-04-30T10:58:15.451Z,19.40
2019-04-30T11:00:44.947Z,18.67
2019-04-30T11:03:20.038Z,18.00
2019-04-30T11:05:44.763Z,21.20
2019-04-30T11:08:13.899Z,21.67
2019-04-30T11:10:43.324Z,20.83
2019-04-30T11:13:12.295Z,24.40
2019-04-30T11:15:41.252Z,24.93
2019-04-30T11:18:10.441Z,23.00
2019-04-30T11:20:39.992Z,21.63
2019-04-30T11:23:14.644Z,19.23
2019-04-30T11:25:41.263Z,18.93
2019-04-30T11:28:11.238Z,30.07
2019-04-30T11:30:40.911Z,21.70
2019-04-30T11:33:10.605Z,22.37
2019-04-30T11:35:39.708Z,20.20
2019-04-30T11:38:08.712Z,22.10
2019-04-30T11:40:39.996Z,21.13
2019-04-30T11:43:08.511Z,18.47
2019-04-30T11:46:18.672Z,19.07
2019-04-30T11:48:49.021Z,18.03
2019-04-30T11:51:19.380Z,19.07
2019-04-30T11:53:49.016Z,19.97
2019-04-30T11:56:18.284Z,15.67
2019-04-30T11:58:48.927Z,18.03
2019-04-30T12:01:19.912Z,16.77
2019-04-30T12:03:49.779Z,21.90
2019-04-30T12:06:18.925Z,20.50
2019-04-30T12:09:16.143Z,18.07
2019-04-30T12:11:45.379Z,17.73
2019-04-30T12:14:14.402Z,18.70
2019-04-30T12:16:43.384Z,20.17
2019-04-30T12:19:12.495Z,16.40
2019-04-30T12:21:42.692Z,19.13
2019-04-30T12:24:11.715Z,16.00
2019-04-30T12:26:40.920Z,15.67
2019-04-30T12:29:11.214Z,17.87
2019-04-30T12:31:40.296Z,20.27
2019-04-30T12:34:09.424Z,19.33
2019-04-30T12:36:38.867Z,14.03
2019-04-30T12:39:08.019Z,24.07
2019-04-30T12:41:38.993Z,17.07
2019-04-30T12:44:07.974Z,18.20
2019-04-30T12:46:38.717Z,16.73
2019-04-30T12:49:12.443Z,19.80
2019-04-30T12:51:48.824Z,17.50
2019-04-30T12:54:24.391Z,19.20
2019-04-30T12:57:05.881Z,21.43
2019-04-30T12:59:35.079Z,14.07
2019-04-30T13:02:04.651Z,16.47
2019-04-30T13:04:33.671Z,18.63
2019-04-30T13:07:03.359Z,15.23
2019-04-30T13:09:33.414Z,18.73
2019-04-30T13:12:03.395Z,13.37
2019-04-30T13:14:35.811Z,14.23
2019-04-30T13:17:03.879Z,15.60
2019-04-30T13:19:33.064Z,21.83
2019-04-30T13:22:02.246Z,18.53
2019-04-30T13:24:31.960Z,19.03
2019-04-30T13:27:00.984Z,13.73
2019-04-30T13:29:35.134Z,18.03
2019-04-30T13:32:04.321Z,14.57
2019-04-30T13:34:47.880Z,11.30
2019-04-30T13:37:16.921Z,14.63
2019-04-30T13:40:04.964Z,16.10
2019-04-30T13:42:39.003Z,13.77
2019-04-30T13:45:08.407Z,14.90
2019-04-30T13:47:39.054Z,16.17
2019-04-30T13:50:09.348Z,13.07
2019-04-30T13:52:38.924Z,14.57
2019-04-30T13:55:10.766Z,13.40
2019-04-30T13:57:39.140Z,21.40
2019-04-30T14:00:09.740Z,17.53
2019-04-30T14:02:44.637Z,16.83
2019-04-30T14:05:14.703Z,18.90
2019-04-30T14:08:09.495Z,18.87
2019-04-30T14:10:41.635Z,18.07
2019-04-30T14:13:11.761Z,15.27
2019-04-30T14:15:41.131Z,19.67
2019-04-30T14:18:10.239Z,19.60
2019-04-30T14:20:39.291Z,12.73
2019-04-30T14:23:08.516Z,21.43
2019-04-30T14:25:39.102Z,19.57
2019-04-30T14:28:09.448Z,20.17
2019-04-30T14:30:39.359Z,17.83
2019-04-30T14:33:09.452Z,18.00
2019-04-30T14:35:38.737Z,18.57
2019-04-30T14:38:09.063Z,19.57
2019-04-30T14:40:40.515Z,16.60
2019-04-30T14:43:29.696Z,16.50
2019-04-30T14:46:17.251Z,12.03
2019-04-30T14:48:50.781Z,12.93
2019-04-30T14:51:20.592Z,13.03
2019-04-30T14:54:02.728Z,15.67
2019-04-30T14:56:37.170Z,13.27
2019-04-30T14:59:28.948Z,10.33
2019-04-30T15:02:21.468Z,12.43
2019-04-30T15:04:50.564Z,11.93
2019-04-30T15:07:19.586Z,12.67
2019-04-30T15:09:48.636Z,12.07
2019-04-30T15:12:17.765Z,11.63
2019-04-30T15:14:49.163Z,10.80
2019-04-30T15:17:17.719Z,13.43
2019-04-30T15:19:48.816Z,12.07
2019-04-30T15:22:18.972Z,12.23
2019-04-30T15:24:49.202Z,9.53
2019-04-30T15:27:19.149Z,10.70
2019-04-30T15:29:56.655Z,12.03
2019-04-30T15:32:19.039Z,12.00
2019-04-30T15:34:49.071Z,16.60
2019-04-30T15:37:21.580Z,11.27
2019-04-30T15:39:49.115Z,12.70
2019-04-30T15:42:19.191Z,13.77
2019-04-30T15:44:50.077Z,11.50
2019-04-30T15:47:19.756Z,9.60
2019-04-30T15:49:49.090Z,18.00
2019-04-30T15:52:18.931Z,10.10
2019-04-30T15:54:49.076Z,13.00
2019-04-30T15:57:18.972Z,10.90
2019-04-30T15:59:48.140Z,13.53
2019-04-30T16:02:22.987Z,16.43
2019-04-30T16:05:12.512Z,13.83
2019-04-30T16:07:49.280Z,13.63
2019-04-30T16:10:40.473Z,13.87
2019-04-30T16:13:14.747Z,11.87
2019-04-30T16:15:43.879Z,11.90
2019-04-30T16:18:12.919Z,10.03
2019-04-30T16:20:41.915Z,10.40
2019-04-30T16:23:11.113Z,14.33
2019-04-30T16:25:40.200Z,20.67
2019-04-30T16:28:10.157Z,15.40
2019-04-30T16:30:39.211Z,16.30
2019-04-30T16:33:09.505Z,12.67
2019-04-30T16:35:38.537Z,14.00
2019-04-30T16:38:09.231Z,15.20
2019-04-30T16:40:38.680Z,21.47
2019-04-30T16:43:07.707Z,15.57
2019-04-30T16:45:36.690Z,13.67
2019-04-30T16:48:05.717Z,17.37
2019-04-30T16:50:34.696Z,18.30
2019-04-30T16:53:03.774Z,19.00
2019-04-30T16:55:33.115Z,20.30
2019-04-30T16:58:02.160Z,27.50
2019-04-30T17:00:31.287Z,19.90
2019-04-30T17:03:04.608Z,20.17
2019-04-30T17:05:40.216Z,22.53
2019-04-30T17:08:14.722Z,16.67
2019-04-30T17:10:52.849Z,29.67
2019-04-30T17:13:30.409Z,23.67
2019-04-30T17:16:06.473Z,25.20
2019-04-30T17:18:35.469Z,20.47
2019-04-30T17:21:04.621Z,19.97
2019-04-30T17:23:34.256Z,23.07
2019-04-30T17:26:03.511Z,17.53
2019-04-30T17:28:32.505Z,18.17
2019-04-30T17:31:01.596Z,20.07
2019-04-30T17:33:30.607Z,33.67
2019-04-30T17:35:59.627Z,23.83
2019-04-30T17:38:28.688Z,25.03
2019-04-30T17:40:57.902Z,21.50
2019-04-30T17:43:27.103Z,19.63
2019-04-30T17:45:56.154Z,24.60
2019-04-30T17:48:25.131Z,20.17
2019-04-30T17:50:54.623Z,21.40
2019-04-30T17:53:24.083Z,21.77
2019-04-30T17:55:53.186Z,20.50
2019-04-30T17:58:22.268Z,21.17
2019-04-30T18:00:54.544Z,24.67
2019-04-30T18:03:23.540Z,37.23
2019-04-30T18:05:52.600Z,24.97
2019-04-30T18:08:21.968Z,28.70
2019-04-30T18:10:50.961Z,20.33
2019-04-30T18:13:19.956Z,24.73
2019-04-30T18:15:49.540Z,29.13
2019-04-30T18:18:23.866Z,25.73
2019-04-30T18:21:18.978Z,20.13
2019-04-30T18:24:22.423Z,22.83
2019-04-30T18:26:59.317Z,25.37
2019-04-30T18:29:28.297Z,30.17
2019-04-30T18:31:59.805Z,26.97
2019-04-30T18:34:29.192Z,26.13
2019-04-30T18:36:59.336Z,30.40
2019-04-30T18:39:28.974Z,26.57
2019-04-30T18:41:58.214Z,30.37
2019-04-30T18:44:29.381Z,21.30
2019-04-30T18:46:59.030Z,28.27
2019-04-30T18:49:28.706Z,33.53
2019-04-30T18:51:59.053Z,24.60
2019-04-30T18:54:28.937Z,25.33
2019-04-30T18:56:58.980Z,29.03
2019-04-30T18:59:28.164Z,26.67
2019-04-30T19:01:57.224Z,30.70
2019-04-30T19:04:28.682Z,25.43
2019-04-30T19:07:00.374Z,29.23
2019-04-30T19:09:49.065Z,31.73
2019-04-30T19:12:35.687Z,27.10
2019-04-30T19:15:37.030Z,22.70
2019-04-30T19:18:15.504Z,27.83
2019-04-30T19:20:47.306Z,24.53
2019-04-30T19:23:16.477Z,23.40
2019-04-30T19:25:45.441Z,23.50
2019-04-30T19:28:14.749Z,25.23
2019-04-30T19:30:54.937Z,24.47
2019-04-30T19:33:14.557Z,25.80
2019-04-30T19:35:43.619Z,24.00
2019-04-30T19:38:12.691Z,23.50
2019-04-30T19:40:41.674Z,24.33
2019-04-30T19:43:10.773Z,23.03
2019-04-30T19:45:39.673Z,28.00
2019-04-30T19:48:09.005Z,27.00
2019-04-30T19:50:38.105Z,20.27
2019-04-30T19:53:08.760Z,27.13
2019-04-30T19:55:39.355Z,22.20
2019-04-30T19:58:10.656Z,22.27
2019-04-30T20:00:39.183Z,23.80
2019-04-30T20:03:08.912Z,32.83
2019-04-30T20:05:39.462Z,24.30
2019-04-30T20:08:10.954Z,28.53
2019-04-30T20:10:39.851Z,33.47
2019-04-30T20:13:10.806Z,27.53
2019-04-30T20:15:39.592Z,24.47
2019-04-30T20:18:09.027Z,23.57
2019-04-30T20:20:40.030Z,26.50
2019-04-30T20:23:09.189Z,24.70
2019-04-30T20:25:38.182Z,25.10
2019-04-30T20:28:07.220Z,27.93
2019-04-30T20:30:36.111Z,28.83
2019-04-30T20:33:05.161Z,29.63
2019-04-30T20:35:34.180Z,30.23
2019-04-30T20:38:21.299Z,26.83
2019-04-30T20:40:59.506Z,21.50
2019-04-30T20:43:22.303Z,25.70
2019-04-30T20:45:51.329Z,26.70
2019-04-30T20:48:20.291Z,28.47
2019-04-30T20:50:49.215Z,29.27
2019-04-30T20:53:19.792Z,22.47
2019-04-30T20:55:49.548Z,27.73
2019-04-30T20:58:18.686Z,27.00
2019-04-30T21:01:00.304Z,25.97
2019-04-30T21:03:19.628Z,26.87
2019-04-30T21:05:48.832Z,27.23
2019-04-30T21:08:17.885Z,27.93
2019-04-30T21:10:46.937Z,32.93
2019-04-30T21:13:16.159Z,29.57
2019-04-30T21:15:45.221Z,23.97
2019-04-30T21:18:14.477Z,29.53
2019-04-30T21:20:43.503Z,24.40
2019-04-30T21:23:12.595Z,27.80
2019-04-30T21:25:41.501Z,29.67
2019-04-30T21:28:10.683Z,25.80
2019-04-30T21:30:39.595Z,24.47
2019-04-30T21:33:14.903Z,19.90
2019-04-30T21:35:48.609Z,18.87
2019-04-30T21:38:19.418Z,21.63
2019-04-30T21:40:49.289Z,25.23
2019-04-30T21:43:18.403Z,18.27
2019-04-30T21:45:49.274Z,21.90
2019-04-30T21:48:19.141Z,20.43
2019-04-30T21:50:49.778Z,16.00
2019-04-30T21:53:19.569Z,18.37
2019-04-30T21:55:49.728Z,25.77
2019-04-30T21:58:20.404Z,22.80
2019-04-30T22:01:10.963Z,26.07
2019-04-30T22:03:40.787Z,20.37
2019-04-30T22:06:10.622Z,21.67
2019-04-30T22:08:39.906Z,21.87
2019-04-30T22:11:09.785Z,24.73
2019-04-30T22:13:39.708Z,26.60
2019-04-30T22:16:09.981Z,22.90
2019-04-30T22:18:39.019Z,30.67
2019-04-30T22:21:09.077Z,24.47
2019-04-30T22:23:38.295Z,28.90
2019-04-30T22:26:07.405Z,20.77
2019-04-30T22:28:36.443Z,27.97
2019-04-30T22:31:05.638Z,34.70
2019-04-30T22:33:34.671Z,29.93
2019-04-30T22:36:16.631Z,36.23
2019-04-30T22:39:12.023Z,23.77
2019-04-30T22:41:41.139Z,27.43
2019-04-30T22:44:10.274Z,28.73
2019-04-30T22:46:39.498Z,25.13
2019-04-30T22:49:09.046Z,25.63
2019-04-30T22:51:38.110Z,22.97
2019-04-30T22:54:07.131Z,28.77
2019-04-30T22:56:36.216Z,20.93
2019-04-30T22:59:05.223Z,28.10
2019-04-30T23:01:54.487Z,21.97
2019-04-30T23:04:36.163Z,26.10
2019-04-30T23:07:05.855Z,21.27
2019-04-30T23:09:34.899Z,23.33
2019-04-30T23:12:04.802Z,21.20
2019-04-30T23:14:34.078Z,25.33
2019-04-30T23:17:04.625Z,23.47
2019-04-30T23:19:33.751Z,35.70
2019-04-30T23:22:02.942Z,28.87
2019-04-30T23:24:31.844Z,30.17
2019-04-30T23:27:00.884Z,23.37
2019-04-30T23:29:30.015Z,22.77
2019-04-30T23:31:58.988Z,24.20
2019-04-30T23:34:27.867Z,27.93
2019-04-30T23:36:56.743Z,27.80
2019-04-30T23:39:25.891Z,28.90
2019-04-30T23:41:54.835Z,27.77
2019-04-30T23:44:23.874Z,28.00
2019-04-30T23:46:54.686Z,26.70
2019-04-30T23:49:23.580Z,27.07
2019-04-30T23:51:52.493Z,21.53
2019-04-30T23:54:21.431Z,24.50
2019-04-30T23:56:50.322Z,27.20
2019-04-30T23:59:19.220Z,22.60
